sensor_id;sensor_type;location;lat;lon;timestamp;P1;durP1;ratioP1;P2;durP2;ratioP2
13641;SDS011;6894;52.196;9.904;2023-05-02T00:01:18;5.30;;;3.90;;
13641;SDS011;6894;52.196;9.904;2023-05-02T00:03:45;5.13;;;3.67;;
13641;SDS011;6894;52.196;9.904;2023-05-02T00:06:12;6.30;;;4.33;;
13641;SDS011;6894;52.196;9.904;2023-05-02T00:08:39;5.50;;;3.87;;
13641;SDS011;6894;52.196;9.904;2023-05-02T00:11:07;6.70;;;4.03;;
13641;SDS011;6894;52.196;9.904;2023-05-02T00:13:34;5.57;;;3.90;;
13641;SDS011;6894;52.196;9.904;2023-05-02T00:16:00;5.63;;;4.20;;
13641;SDS011;6894;52.196;9.904;2023-05-02T00:18:27;4.10;;;3.40;;
13641;SDS011;6894;52.196;9.904;2023-05-02T00:20:54;6.03;;;4.10;;
13641;SDS011;6894;52.196;9.904;2023-05-02T00:23:21;3.90;;;3.50;;
13641;SDS011;6894;52.196;9.904;2023-05-02T00:25:48;5.83;;;3.70;;
13641;SDS011;6894;52.196;9.904;2023-05-02T00:28:16;3.97;;;3.57;;
13641;SDS011;6894;52.196;9.904;2023-05-02T00:30:43;5.73;;;3.93;;
13641;SDS011;6894;52.196;9.904;2023-05-02T00:33:10;5.77;;;3.60;;
13641;SDS011;6894;52.196;9.904;2023-05-02T00:35:38;3.87;;;3.47;;
13641;SDS011;6894;52.196;9.904;2023-05-02T00:38:05;4.73;;;4.00;;
13641;SDS011;6894;52.196;9.904;2023-05-02T00:40:41;6.20;;;4.03;;
13641;SDS011;6894;52.196;9.904;2023-05-02T00:43:09;6.17;;;3.33;;
13641;SDS011;6894;52.196;9.904;2023-05-02T00:45:37;3.40;;;3.10;;
13641;SDS011;6894;52.196;9.904;2023-05-02T00:48:05;5.10;;;2.87;;
13641;SDS011;6894;52.196;9.904;2023-05-02T00:50:33;4.33;;;3.50;;
13641;SDS011;6894;52.196;9.904;2023-05-02T00:53:01;4.97;;;3.80;;
13641;SDS011;6894;52.196;9.904;2023-05-02T00:55:30;5.53;;;3.77;;
13641;SDS011;6894;52.196;9.904;2023-05-02T00:57:56;3.90;;;3.20;;
13641;SDS011;6894;52.196;9.904;2023-05-02T01:00:25;7.03;;;3.70;;
13641;SDS011;6894;52.196;9.904;2023-05-02T01:03:03;6.77;;;3.30;;
13641;SDS011;6894;52.196;9.904;2023-05-02T01:05:38;5.37;;;3.17;;
13641;SDS011;6894;52.196;9.904;2023-05-02T01:08:16;7.00;;;2.93;;
13641;SDS011;6894;52.196;9.904;2023-05-02T01:10:51;4.63;;;3.40;;
13641;SDS011;6894;52.196;9.904;2023-05-02T01:13:25;5.40;;;3.50;;
13641;SDS011;6894;52.196;9.904;2023-05-02T01:15:55;7.63;;;3.40;;
13641;SDS011;6894;52.196;9.904;2023-05-02T01:18:27;4.27;;;3.87;;
13641;SDS011;6894;52.196;9.904;2023-05-02T01:20:58;6.03;;;3.97;;
13641;SDS011;6894;52.196;9.904;2023-05-02T01:23:34;5.63;;;4.20;;
13641;SDS011;6894;52.196;9.904;2023-05-02T01:28:57;4.80;;;4.40;;
13641;SDS011;6894;52.196;9.904;2023-05-02T01:31:25;8.87;;;4.53;;
13641;SDS011;6894;52.196;9.904;2023-05-02T01:33:54;5.97;;;5.07;;
13641;SDS011;6894;52.196;9.904;2023-05-02T01:36:24;6.17;;;5.03;;
13641;SDS011;6894;52.196;9.904;2023-05-02T01:38:54;4.93;;;4.47;;
13641;SDS011;6894;52.196;9.904;2023-05-02T01:41:23;7.53;;;5.03;;
13641;SDS011;6894;52.196;9.904;2023-05-02T01:43:52;6.47;;;5.27;;
13641;SDS011;6894;52.196;9.904;2023-05-02T01:46:22;6.43;;;4.87;;
13641;SDS011;6894;52.196;9.904;2023-05-02T01:48:51;7.27;;;5.80;;
13641;SDS011;6894;52.196;9.904;2023-05-02T01:51:18;7.63;;;5.87;;
13641;SDS011;6894;52.196;9.904;2023-05-02T01:53:47;7.37;;;6.03;;
13641;SDS011;6894;52.196;9.904;2023-05-02T01:56:15;9.33;;;6.10;;
13641;SDS011;6894;52.196;9.904;2023-05-02T01:58:44;10.53;;;6.63;;
13641;SDS011;6894;52.196;9.904;2023-05-02T02:01:13;7.50;;;6.40;;
13641;SDS011;6894;52.196;9.904;2023-05-02T02:03:42;10.63;;;7.33;;
13641;SDS011;6894;52.196;9.904;2023-05-02T02:06:10;8.67;;;7.20;;
13641;SDS011;6894;52.196;9.904;2023-05-02T02:08:37;9.93;;;7.87;;
13641;SDS011;6894;52.196;9.904;2023-05-02T02:11:06;9.63;;;8.13;;
13641;SDS011;6894;52.196;9.904;2023-05-02T02:13:38;10.60;;;8.87;;
13641;SDS011;6894;52.196;9.904;2023-05-02T02:16:11;11.47;;;9.83;;
13641;SDS011;6894;52.196;9.904;2023-05-02T02:18:43;9.73;;;7.93;;
13641;SDS011;6894;52.196;9.904;2023-05-02T02:21:10;13.27;;;9.43;;
13641;SDS011;6894;52.196;9.904;2023-05-02T02:23:41;12.63;;;10.33;;
13641;SDS011;6894;52.196;9.904;2023-05-02T02:26:11;14.60;;;9.87;;
13641;SDS011;6894;52.196;9.904;2023-05-02T02:28:39;10.10;;;9.10;;
13641;SDS011;6894;52.196;9.904;2023-05-02T02:31:06;11.27;;;9.80;;
13641;SDS011;6894;52.196;9.904;2023-05-02T02:33:33;14.73;;;9.37;;
13641;SDS011;6894;52.196;9.904;2023-05-02T02:36:04;16.03;;;11.57;;
13641;SDS011;6894;52.196;9.904;2023-05-02T02:38:37;12.63;;;9.90;;
13641;SDS011;6894;52.196;9.904;2023-05-02T02:41:11;13.70;;;11.90;;
13641;SDS011;6894;52.196;9.904;2023-05-02T02:43:43;13.83;;;11.20;;
13641;SDS011;6894;52.196;9.904;2023-05-02T02:46:16;13.10;;;11.70;;
13641;SDS011;6894;52.196;9.904;2023-05-02T02:48:55;14.80;;;11.77;;
13641;SDS011;6894;52.196;9.904;2023-05-02T02:51:36;13.07;;;11.77;;
13641;SDS011;6894;52.196;9.904;2023-05-02T02:54:05;16.27;;;12.17;;
13641;SDS011;6894;52.196;9.904;2023-05-02T02:56:39;14.57;;;12.60;;
13641;SDS011;6894;52.196;9.904;2023-05-02T02:59:09;21.90;;;13.67;;
13641;SDS011;6894;52.196;9.904;2023-05-02T03:01:42;16.87;;;13.73;;
13641;SDS011;6894;52.196;9.904;2023-05-02T03:04:13;19.60;;;14.23;;
13641;SDS011;6894;52.196;9.904;2023-05-02T03:06:43;15.83;;;13.33;;
13641;SDS011;6894;52.196;9.904;2023-05-02T03:09:13;19.30;;;14.47;;
13641;SDS011;6894;52.196;9.904;2023-05-02T03:11:41;16.93;;;13.57;;
13641;SDS011;6894;52.196;9.904;2023-05-02T03:14:09;18.80;;;13.80;;
13641;SDS011;6894;52.196;9.904;2023-05-02T03:16:36;15.30;;;13.13;;
13641;SDS011;6894;52.196;9.904;2023-05-02T03:19:03;20.90;;;15.33;;
13641;SDS011;6894;52.196;9.904;2023-05-02T03:21:31;17.77;;;14.43;;
13641;SDS011;6894;52.196;9.904;2023-05-02T03:24:00;23.83;;;16.87;;
13641;SDS011;6894;52.196;9.904;2023-05-02T03:26:28;16.80;;;15.03;;
13641;SDS011;6894;52.196;9.904;2023-05-02T03:28:55;23.23;;;16.03;;
13641;SDS011;6894;52.196;9.904;2023-05-02T03:31:22;19.23;;;16.80;;
13641;SDS011;6894;52.196;9.904;2023-05-02T03:33:49;24.53;;;16.80;;
13641;SDS011;6894;52.196;9.904;2023-05-02T03:36:15;20.23;;;14.87;;
13641;SDS011;6894;52.196;9.904;2023-05-02T03:38:42;24.70;;;16.67;;
13641;SDS011;6894;52.196;9.904;2023-05-02T03:41:11;20.37;;;15.87;;
13641;SDS011;6894;52.196;9.904;2023-05-02T03:43:37;20.50;;;15.80;;
13641;SDS011;6894;52.196;9.904;2023-05-02T03:46:05;18.27;;;15.20;;
13641;SDS011;6894;52.196;9.904;2023-05-02T03:48:33;23.23;;;15.13;;
13641;SDS011;6894;52.196;9.904;2023-05-02T03:51:00;18.17;;;14.37;;
13641;SDS011;6894;52.196;9.904;2023-05-02T03:53:28;21.47;;;15.37;;
13641;SDS011;6894;52.196;9.904;2023-05-02T03:55:55;17.77;;;14.20;;
13641;SDS011;6894;52.196;9.904;2023-05-02T03:58:23;19.27;;;15.27;;
13641;SDS011;6894;52.196;9.904;2023-05-02T04:00:51;20.43;;;14.80;;
13641;SDS011;6894;52.196;9.904;2023-05-02T04:03:17;17.43;;;15.27;;
13641;SDS011;6894;52.196;9.904;2023-05-02T04:05:44;19.63;;;14.43;;
13641;SDS011;6894;52.196;9.904;2023-05-02T04:08:11;22.37;;;15.77;;
13641;SDS011;6894;52.196;9.904;2023-05-02T04:10:38;19.67;;;14.70;;
13641;SDS011;6894;52.196;9.904;2023-05-02T04:13:05;21.70;;;15.50;;
13641;SDS011;6894;52.196;9.904;2023-05-02T04:15:33;19.47;;;14.43;;
13641;SDS011;6894;52.196;9.904;2023-05-02T04:18:00;20.43;;;14.57;;
13641;SDS011;6894;52.196;9.904;2023-05-02T04:20:27;17.23;;;14.13;;
13641;SDS011;6894;52.196;9.904;2023-05-02T04:22:55;21.03;;;15.30;;
13641;SDS011;6894;52.196;9.904;2023-05-02T04:25:21;19.00;;;15.27;;
13641;SDS011;6894;52.196;9.904;2023-05-02T04:27:48;19.50;;;14.30;;
13641;SDS011;6894;52.196;9.904;2023-05-02T04:30:15;19.87;;;16.27;;
13641;SDS011;6894;52.196;9.904;2023-05-02T04:32:43;23.87;;;16.47;;
13641;SDS011;6894;52.196;9.904;2023-05-02T04:35:10;19.83;;;14.03;;
13641;SDS011;6894;52.196;9.904;2023-05-02T04:37:36;21.27;;;13.90;;
13641;SDS011;6894;52.196;9.904;2023-05-02T04:40:04;19.10;;;13.93;;
13641;SDS011;6894;52.196;9.904;2023-05-02T04:42:32;17.53;;;13.23;;
13641;SDS011;6894;52.196;9.904;2023-05-02T04:44:59;20.10;;;14.20;;
13641;SDS011;6894;52.196;9.904;2023-05-02T04:47:25;20.63;;;14.43;;
13641;SDS011;6894;52.196;9.904;2023-05-02T04:49:53;17.93;;;12.90;;
13641;SDS011;6894;52.196;9.904;2023-05-02T04:52:20;21.13;;;14.80;;
13641;SDS011;6894;52.196;9.904;2023-05-02T04:54:47;20.27;;;15.23;;
13641;SDS011;6894;52.196;9.904;2023-05-02T04:57:14;22.80;;;15.73;;
13641;SDS011;6894;52.196;9.904;2023-05-02T04:59:40;25.63;;;15.40;;
13641;SDS011;6894;52.196;9.904;2023-05-02T05:02:07;21.10;;;15.27;;
13641;SDS011;6894;52.196;9.904;2023-05-02T05:04:36;22.27;;;13.77;;
13641;SDS011;6894;52.196;9.904;2023-05-02T05:07:04;22.73;;;15.43;;
13641;SDS011;6894;52.196;9.904;2023-05-02T05:09:31;22.80;;;15.17;;
13641;SDS011;6894;52.196;9.904;2023-05-02T05:11:58;23.70;;;15.13;;
13641;SDS011;6894;52.196;9.904;2023-05-02T05:14:25;24.83;;;15.63;;
13641;SDS011;6894;52.196;9.904;2023-05-02T05:16:52;17.80;;;13.57;;
13641;SDS011;6894;52.196;9.904;2023-05-02T05:19:19;20.77;;;14.83;;
13641;SDS011;6894;52.196;9.904;2023-05-02T05:21:46;19.60;;;14.30;;
13641;SDS011;6894;52.196;9.904;2023-05-02T05:24:14;23.83;;;15.17;;
13641;SDS011;6894;52.196;9.904;2023-05-02T05:26:40;16.50;;;13.30;;
13641;SDS011;6894;52.196;9.904;2023-05-02T05:29:07;19.03;;;13.60;;
13641;SDS011;6894;52.196;9.904;2023-05-02T05:31:34;15.73;;;12.60;;
13641;SDS011;6894;52.196;9.904;2023-05-02T05:34:01;18.63;;;13.53;;
13641;SDS011;6894;52.196;9.904;2023-05-02T05:36:28;14.87;;;12.80;;
13641;SDS011;6894;52.196;9.904;2023-05-02T05:38:56;17.20;;;12.13;;
13641;SDS011;6894;52.196;9.904;2023-05-02T05:41:24;17.00;;;12.27;;
13641;SDS011;6894;52.196;9.904;2023-05-02T05:43:51;16.17;;;10.73;;
13641;SDS011;6894;52.196;9.904;2023-05-02T05:46:18;15.87;;;11.00;;
13641;SDS011;6894;52.196;9.904;2023-05-02T05:48:45;13.07;;;10.97;;
13641;SDS011;6894;52.196;9.904;2023-05-02T05:51:12;15.33;;;11.00;;
13641;SDS011;6894;52.196;9.904;2023-05-02T05:53:39;13.93;;;10.10;;
13641;SDS011;6894;52.196;9.904;2023-05-02T05:56:09;14.40;;;11.33;;
13641;SDS011;6894;52.196;9.904;2023-05-02T05:58:37;10.50;;;9.00;;
13641;SDS011;6894;52.196;9.904;2023-05-02T06:01:05;6.77;;;5.57;;
13641;SDS011;6894;52.196;9.904;2023-05-02T06:03:32;7.77;;;5.13;;
13641;SDS011;6894;52.196;9.904;2023-05-02T06:05:59;4.67;;;3.63;;
13641;SDS011;6894;52.196;9.904;2023-05-02T06:08:26;4.17;;;3.53;;
13641;SDS011;6894;52.196;9.904;2023-05-02T06:10:53;3.77;;;2.70;;
13641;SDS011;6894;52.196;9.904;2023-05-02T06:13:19;3.47;;;2.47;;
13641;SDS011;6894;52.196;9.904;2023-05-02T06:15:48;4.17;;;2.50;;
13641;SDS011;6894;52.196;9.904;2023-05-02T06:18:14;4.67;;;2.43;;
13641;SDS011;6894;52.196;9.904;2023-05-02T06:20:41;6.17;;;3.13;;
13641;SDS011;6894;52.196;9.904;2023-05-02T06:23:08;3.03;;;2.03;;
13641;SDS011;6894;52.196;9.904;2023-05-02T06:25:36;3.63;;;2.23;;
13641;SDS011;6894;52.196;9.904;2023-05-02T06:28:03;3.20;;;1.87;;
13641;SDS011;6894;52.196;9.904;2023-05-02T06:30:31;2.23;;;1.80;;
13641;SDS011;6894;52.196;9.904;2023-05-02T06:32:59;2.53;;;1.70;;
13641;SDS011;6894;52.196;9.904;2023-05-02T06:35:26;4.60;;;2.23;;
13641;SDS011;6894;52.196;9.904;2023-05-02T06:37:52;3.63;;;2.10;;
13641;SDS011;6894;52.196;9.904;2023-05-02T06:40:19;5.63;;;2.47;;
13641;SDS011;6894;52.196;9.904;2023-05-02T06:42:46;2.73;;;2.30;;
13641;SDS011;6894;52.196;9.904;2023-05-02T06:45:13;4.20;;;2.77;;
13641;SDS011;6894;52.196;9.904;2023-05-02T06:47:39;2.60;;;2.10;;
13641;SDS011;6894;52.196;9.904;2023-05-02T06:50:08;6.50;;;3.70;;
13641;SDS011;6894;52.196;9.904;2023-05-02T06:52:36;4.83;;;3.03;;
13641;SDS011;6894;52.196;9.904;2023-05-02T06:55:03;5.77;;;2.90;;
13641;SDS011;6894;52.196;9.904;2023-05-02T06:57:30;5.27;;;2.70;;
13641;SDS011;6894;52.196;9.904;2023-05-02T06:59:56;6.53;;;2.90;;
13641;SDS011;6894;52.196;9.904;2023-05-02T07:02:23;5.23;;;2.60;;
13641;SDS011;6894;52.196;9.904;2023-05-02T07:04:50;6.10;;;3.43;;
13641;SDS011;6894;52.196;9.904;2023-05-02T07:07:18;6.77;;;2.97;;
13641;SDS011;6894;52.196;9.904;2023-05-02T07:09:46;5.77;;;3.67;;
13641;SDS011;6894;52.196;9.904;2023-05-02T07:12:12;9.80;;;3.50;;
13641;SDS011;6894;52.196;9.904;2023-05-02T07:14:39;6.80;;;3.33;;
13641;SDS011;6894;52.196;9.904;2023-05-02T07:17:07;7.87;;;3.67;;
13641;SDS011;6894;52.196;9.904;2023-05-02T07:19:33;8.80;;;3.20;;
13641;SDS011;6894;52.196;9.904;2023-05-02T07:22:00;8.43;;;3.83;;
13641;SDS011;6894;52.196;9.904;2023-05-02T07:24:28;12.27;;;3.70;;
13641;SDS011;6894;52.196;9.904;2023-05-02T07:26:55;7.50;;;4.07;;
13641;SDS011;6894;52.196;9.904;2023-05-02T07:29:22;9.47;;;3.80;;
13641;SDS011;6894;52.196;9.904;2023-05-02T07:31:49;10.53;;;4.27;;
13641;SDS011;6894;52.196;9.904;2023-05-02T07:34:16;8.70;;;3.73;;
13641;SDS011;6894;52.196;9.904;2023-05-02T07:36:42;13.00;;;4.10;;
13641;SDS011;6894;52.196;9.904;2023-05-02T07:39:09;8.47;;;3.73;;
13641;SDS011;6894;52.196;9.904;2023-05-02T07:41:37;16.90;;;4.93;;
13641;SDS011;6894;52.196;9.904;2023-05-02T07:44:04;8.77;;;3.90;;
13641;SDS011;6894;52.196;9.904;2023-05-02T07:46:31;8.50;;;3.60;;
13641;SDS011;6894;52.196;9.904;2023-05-02T07:48:57;12.10;;;3.97;;
13641;SDS011;6894;52.196;9.904;2023-05-02T07:51:24;11.93;;;3.93;;
13641;SDS011;6894;52.196;9.904;2023-05-02T07:53:52;9.63;;;3.20;;
13641;SDS011;6894;52.196;9.904;2023-05-02T07:56:22;15.27;;;4.40;;
13641;SDS011;6894;52.196;9.904;2023-05-02T07:58:50;12.40;;;3.73;;
13641;SDS011;6894;52.196;9.904;2023-05-02T08:01:17;13.80;;;4.13;;
13641;SDS011;6894;52.196;9.904;2023-05-02T08:03:44;13.70;;;3.80;;
13641;SDS011;6894;52.196;9.904;2023-05-02T08:06:12;10.33;;;3.67;;
13641;SDS011;6894;52.196;9.904;2023-05-02T08:08:39;10.70;;;3.50;;
13641;SDS011;6894;52.196;9.904;2023-05-02T08:11:06;8.40;;;3.60;;
13641;SDS011;6894;52.196;9.904;2023-05-02T08:13:33;16.30;;;3.83;;
13641;SDS011;6894;52.196;9.904;2023-05-02T08:16:01;7.87;;;3.33;;
13641;SDS011;6894;52.196;9.904;2023-05-02T08:18:27;8.43;;;3.70;;
13641;SDS011;6894;52.196;9.904;2023-05-02T08:20:54;8.60;;;3.57;;
13641;SDS011;6894;52.196;9.904;2023-05-02T08:23:22;7.33;;;3.60;;
13641;SDS011;6894;52.196;9.904;2023-05-02T08:25:49;12.07;;;4.53;;
13641;SDS011;6894;52.196;9.904;2023-05-02T08:28:15;10.07;;;3.53;;
13641;SDS011;6894;52.196;9.904;2023-05-02T08:30:43;6.27;;;3.20;;
13641;SDS011;6894;52.196;9.904;2023-05-02T08:33:11;13.07;;;4.27;;
13641;SDS011;6894;52.196;9.904;2023-05-02T08:35:38;7.97;;;3.87;;
13641;SDS011;6894;52.196;9.904;2023-05-02T08:38:05;8.77;;;4.30;;
13641;SDS011;6894;52.196;9.904;2023-05-02T08:40:32;7.40;;;3.07;;
13641;SDS011;6894;52.196;9.904;2023-05-02T08:43:01;7.37;;;3.73;;
13641;SDS011;6894;52.196;9.904;2023-05-02T08:45:30;8.73;;;3.37;;
13641;SDS011;6894;52.196;9.904;2023-05-02T08:48:04;8.57;;;4.10;;
13641;SDS011;6894;52.196;9.904;2023-05-02T08:50:36;10.37;;;4.70;;
13641;SDS011;6894;52.196;9.904;2023-05-02T08:53:04;11.00;;;4.30;;
13641;SDS011;6894;52.196;9.904;2023-05-02T08:55:31;13.00;;;4.40;;
13641;SDS011;6894;52.196;9.904;2023-05-02T08:57:59;10.07;;;3.67;;
13641;SDS011;6894;52.196;9.904;2023-05-02T09:00:28;9.33;;;3.00;;
13641;SDS011;6894;52.196;9.904;2023-05-02T09:02:59;10.30;;;3.20;;
13641;SDS011;6894;52.196;9.904;2023-05-02T09:05:32;10.10;;;4.63;;
13641;SDS011;6894;52.196;9.904;2023-05-02T09:08:05;6.60;;;2.77;;
13641;SDS011;6894;52.196;9.904;2023-05-02T09:10:33;7.47;;;2.80;;
13641;SDS011;6894;52.196;9.904;2023-05-02T09:15:56;5.37;;;2.40;;
13641;SDS011;6894;52.196;9.904;2023-05-02T09:18:26;8.03;;;3.13;;
13641;SDS011;6894;52.196;9.904;2023-05-02T09:20:56;9.93;;;3.63;;
13641;SDS011;6894;52.196;9.904;2023-05-02T09:23:37;7.90;;;3.70;;
13641;SDS011;6894;52.196;9.904;2023-05-02T09:26:09;5.33;;;2.30;;
13641;SDS011;6894;52.196;9.904;2023-05-02T09:28:41;8.43;;;3.23;;
13641;SDS011;6894;52.196;9.904;2023-05-02T09:31:11;7.03;;;2.77;;
13641;SDS011;6894;52.196;9.904;2023-05-02T09:33:40;13.50;;;3.63;;
13641;SDS011;6894;52.196;9.904;2023-05-02T09:36:09;9.20;;;2.83;;
13641;SDS011;6894;52.196;9.904;2023-05-02T09:38:38;5.83;;;2.93;;
13641;SDS011;6894;52.196;9.904;2023-05-02T09:41:05;9.83;;;2.97;;
13641;SDS011;6894;52.196;9.904;2023-05-02T09:43:32;7.27;;;2.90;;
13641;SDS011;6894;52.196;9.904;2023-05-02T09:46:00;12.23;;;3.30;;
13641;SDS011;6894;52.196;9.904;2023-05-02T09:48:29;86.30;;;39.40;;
13641;SDS011;6894;52.196;9.904;2023-05-02T09:50:57;103.57;;;55.57;;
13641;SDS011;6894;52.196;9.904;2023-05-02T09:53:26;30.60;;;20.83;;
13641;SDS011;6894;52.196;9.904;2023-05-02T09:56:00;17.53;;;9.50;;
13641;SDS011;6894;52.196;9.904;2023-05-02T09:58:28;11.00;;;6.37;;
13641;SDS011;6894;52.196;9.904;2023-05-02T10:00:56;26.80;;;15.87;;
13641;SDS011;6894;52.196;9.904;2023-05-02T10:03:24;16.43;;;12.90;;
13641;SDS011;6894;52.196;9.904;2023-05-02T10:05:51;20.00;;;10.13;;
13641;SDS011;6894;52.196;9.904;2023-05-02T10:08:19;9.13;;;6.77;;
13641;SDS011;6894;52.196;9.904;2023-05-02T10:10:49;10.90;;;8.27;;
13641;SDS011;6894;52.196;9.904;2023-05-02T10:13:19;9.43;;;6.50;;
13641;SDS011;6894;52.196;9.904;2023-05-02T10:15:48;18.43;;;13.27;;
13641;SDS011;6894;52.196;9.904;2023-05-02T10:18:20;41.07;;;23.10;;
13641;SDS011;6894;52.196;9.904;2023-05-02T10:20:55;19.20;;;15.17;;
13641;SDS011;6894;52.196;9.904;2023-05-02T10:23:27;15.07;;;10.27;;
13641;SDS011;6894;52.196;9.904;2023-05-02T10:25:57;22.27;;;16.90;;
13641;SDS011;6894;52.196;9.904;2023-05-02T10:28:25;30.73;;;21.47;;
13641;SDS011;6894;52.196;9.904;2023-05-02T10:30:52;14.07;;;7.83;;
13641;SDS011;6894;52.196;9.904;2023-05-02T10:33:20;46.00;;;26.70;;
13641;SDS011;6894;52.196;9.904;2023-05-02T10:35:47;47.87;;;26.03;;
13641;SDS011;6894;52.196;9.904;2023-05-02T10:38:15;30.90;;;20.70;;
13641;SDS011;6894;52.196;9.904;2023-05-02T10:40:46;14.40;;;11.73;;
13641;SDS011;6894;52.196;9.904;2023-05-02T10:43:21;13.97;;;10.63;;
13641;SDS011;6894;52.196;9.904;2023-05-02T10:45:50;16.17;;;14.20;;
13641;SDS011;6894;52.196;9.904;2023-05-02T10:48:18;6.93;;;5.43;;
13641;SDS011;6894;52.196;9.904;2023-05-02T10:50:46;11.73;;;6.60;;
13641;SDS011;6894;52.196;9.904;2023-05-02T10:56:07;10.73;;;5.67;;
13641;SDS011;6894;52.196;9.904;2023-05-02T10:58:40;10.37;;;7.87;;
13641;SDS011;6894;52.196;9.904;2023-05-02T11:04:09;8.10;;;3.83;;
13641;SDS011;6894;52.196;9.904;2023-05-02T11:06:37;6.33;;;4.90;;
13641;SDS011;6894;52.196;9.904;2023-05-02T11:09:41;36.50;;;27.10;;
13641;SDS011;6894;52.196;9.904;2023-05-02T11:12:07;18.53;;;13.43;;
13641;SDS011;6894;52.196;9.904;2023-05-02T11:14:44;14.67;;;12.40;;
13641;SDS011;6894;52.196;9.904;2023-05-02T11:17:12;6.33;;;3.93;;
13641;SDS011;6894;52.196;9.904;2023-05-02T11:22:51;8.90;;;3.40;;
13641;SDS011;6894;52.196;9.904;2023-05-02T11:25:30;7.53;;;3.83;;
13641;SDS011;6894;52.196;9.904;2023-05-02T11:28:01;8.17;;;7.37;;
13641;SDS011;6894;52.196;9.904;2023-05-02T11:30:43;11.63;;;7.10;;
13641;SDS011;6894;52.196;9.904;2023-05-02T11:33:13;6.10;;;3.40;;
13641;SDS011;6894;52.196;9.904;2023-05-02T11:35:42;7.53;;;3.83;;
13641;SDS011;6894;52.196;9.904;2023-05-02T11:38:11;5.97;;;2.70;;
13641;SDS011;6894;52.196;9.904;2023-05-02T11:40:39;6.00;;;2.87;;
13641;SDS011;6894;52.196;9.904;2023-05-02T11:43:15;5.90;;;2.50;;
13641;SDS011;6894;52.196;9.904;2023-05-02T11:45:44;3.70;;;2.30;;
13641;SDS011;6894;52.196;9.904;2023-05-02T11:48:12;4.90;;;2.93;;
13641;SDS011;6894;52.196;9.904;2023-05-02T11:50:42;8.83;;;2.87;;
13641;SDS011;6894;52.196;9.904;2023-05-02T11:53:10;3.97;;;2.60;;
13641;SDS011;6894;52.196;9.904;2023-05-02T11:55:43;5.10;;;2.17;;
13641;SDS011;6894;52.196;9.904;2023-05-02T11:58:14;4.80;;;2.30;;
13641;SDS011;6894;52.196;9.904;2023-05-02T12:00:44;5.73;;;3.30;;
13641;SDS011;6894;52.196;9.904;2023-05-02T12:03:28;8.97;;;3.90;;
13641;SDS011;6894;52.196;9.904;2023-05-02T12:05:56;7.47;;;3.37;;
13641;SDS011;6894;52.196;9.904;2023-05-02T12:08:34;7.00;;;3.60;;
13641;SDS011;6894;52.196;9.904;2023-05-02T12:11:01;9.10;;;3.70;;
13641;SDS011;6894;52.196;9.904;2023-05-02T12:13:28;5.03;;;4.00;;
13641;SDS011;6894;52.196;9.904;2023-05-02T12:15:56;9.73;;;3.50;;
13641;SDS011;6894;52.196;9.904;2023-05-02T12:18:24;7.60;;;3.80;;
13641;SDS011;6894;52.196;9.904;2023-05-02T12:20:52;9.43;;;4.00;;
13641;SDS011;6894;52.196;9.904;2023-05-02T12:23:21;8.77;;;3.40;;
13641;SDS011;6894;52.196;9.904;2023-05-02T12:25:50;6.17;;;3.87;;
13641;SDS011;6894;52.196;9.904;2023-05-02T12:28:17;6.00;;;3.37;;
13641;SDS011;6894;52.196;9.904;2023-05-02T12:30:46;7.97;;;3.57;;
13641;SDS011;6894;52.196;9.904;2023-05-02T12:33:15;7.77;;;3.63;;
13641;SDS011;6894;52.196;9.904;2023-05-02T12:35:42;8.90;;;3.47;;
13641;SDS011;6894;52.196;9.904;2023-05-02T12:38:12;9.20;;;6.03;;
13641;SDS011;6894;52.196;9.904;2023-05-02T12:40:50;5.53;;;3.80;;
13641;SDS011;6894;52.196;9.904;2023-05-02T12:43:18;7.77;;;3.43;;
13641;SDS011;6894;52.196;9.904;2023-05-02T12:45:46;6.10;;;2.77;;
13641;SDS011;6894;52.196;9.904;2023-05-02T12:48:21;9.13;;;2.93;;
13641;SDS011;6894;52.196;9.904;2023-05-02T12:50:50;8.03;;;2.70;;
13641;SDS011;6894;52.196;9.904;2023-05-02T12:56:04;10.00;;;2.67;;
13641;SDS011;6894;52.196;9.904;2023-05-02T12:58:39;6.43;;;2.63;;
13641;SDS011;6894;52.196;9.904;2023-05-02T13:01:07;3.93;;;2.33;;
13641;SDS011;6894;52.196;9.904;2023-05-02T13:03:35;8.10;;;3.57;;
13641;SDS011;6894;52.196;9.904;2023-05-02T13:06:02;6.30;;;2.83;;
13641;SDS011;6894;52.196;9.904;2023-05-02T13:08:30;8.97;;;5.97;;
13641;SDS011;6894;52.196;9.904;2023-05-02T13:10:58;4.87;;;3.40;;
13641;SDS011;6894;52.196;9.904;2023-05-02T13:13:24;11.53;;;7.00;;
13641;SDS011;6894;52.196;9.904;2023-05-02T13:15:52;12.03;;;6.30;;
13641;SDS011;6894;52.196;9.904;2023-05-02T13:18:18;6.37;;;4.03;;
13641;SDS011;6894;52.196;9.904;2023-05-02T13:20:46;15.37;;;11.23;;
13641;SDS011;6894;52.196;9.904;2023-05-02T13:23:13;17.27;;;11.47;;
13641;SDS011;6894;52.196;9.904;2023-05-02T13:25:41;7.50;;;4.53;;
13641;SDS011;6894;52.196;9.904;2023-05-02T13:28:07;5.67;;;3.20;;
13641;SDS011;6894;52.196;9.904;2023-05-02T13:30:34;6.20;;;3.90;;
13641;SDS011;6894;52.196;9.904;2023-05-02T13:33:01;15.60;;;7.20;;
13641;SDS011;6894;52.196;9.904;2023-05-02T13:35:28;6.67;;;3.43;;
13641;SDS011;6894;52.196;9.904;2023-05-02T13:37:56;5.23;;;2.93;;
13641;SDS011;6894;52.196;9.904;2023-05-02T13:40:23;5.97;;;3.10;;
13641;SDS011;6894;52.196;9.904;2023-05-02T13:42:50;7.93;;;3.70;;
13641;SDS011;6894;52.196;9.904;2023-05-02T13:45:16;11.70;;;8.40;;
13641;SDS011;6894;52.196;9.904;2023-05-02T13:47:43;7.47;;;3.70;;
13641;SDS011;6894;52.196;9.904;2023-05-02T13:50:10;8.97;;;6.63;;
13641;SDS011;6894;52.196;9.904;2023-05-02T13:52:37;15.23;;;11.70;;
13641;SDS011;6894;52.196;9.904;2023-05-02T13:55:05;10.43;;;7.17;;
13641;SDS011;6894;52.196;9.904;2023-05-02T13:57:33;13.10;;;11.73;;
13641;SDS011;6894;52.196;9.904;2023-05-02T13:59:59;11.83;;;7.13;;
13641;SDS011;6894;52.196;9.904;2023-05-02T14:02:26;8.77;;;4.63;;
13641;SDS011;6894;52.196;9.904;2023-05-02T14:04:53;7.93;;;3.23;;
13641;SDS011;6894;52.196;9.904;2023-05-02T14:07:20;8.47;;;4.70;;
13641;SDS011;6894;52.196;9.904;2023-05-02T14:09:46;10.27;;;7.97;;
13641;SDS011;6894;52.196;9.904;2023-05-02T14:12:14;5.77;;;3.73;;
13641;SDS011;6894;52.196;9.904;2023-05-02T14:14:41;6.20;;;2.60;;
13641;SDS011;6894;52.196;9.904;2023-05-02T14:17:08;4.30;;;2.63;;
13641;SDS011;6894;52.196;9.904;2023-05-02T14:19:35;4.87;;;2.90;;
13641;SDS011;6894;52.196;9.904;2023-05-02T14:22:01;3.93;;;2.23;;
13641;SDS011;6894;52.196;9.904;2023-05-02T14:24:28;8.03;;;5.30;;
13641;SDS011;6894;52.196;9.904;2023-05-02T14:26:55;26.73;;;16.63;;
13641;SDS011;6894;52.196;9.904;2023-05-02T14:29:24;20.47;;;15.47;;
13641;SDS011;6894;52.196;9.904;2023-05-02T14:31:50;4.40;;;3.13;;
13641;SDS011;6894;52.196;9.904;2023-05-02T14:34:17;13.70;;;9.50;;
13641;SDS011;6894;52.196;9.904;2023-05-02T14:36:45;16.00;;;10.57;;
13641;SDS011;6894;52.196;9.904;2023-05-02T14:39:12;10.23;;;6.13;;
13641;SDS011;6894;52.196;9.904;2023-05-02T14:41:39;15.20;;;9.97;;
13641;SDS011;6894;52.196;9.904;2023-05-02T14:44:06;6.17;;;4.60;;
13641;SDS011;6894;52.196;9.904;2023-05-02T14:46:34;5.67;;;4.63;;
13641;SDS011;6894;52.196;9.904;2023-05-02T14:49:01;6.20;;;5.27;;
13641;SDS011;6894;52.196;9.904;2023-05-02T14:51:27;11.77;;;10.43;;
13641;SDS011;6894;52.196;9.904;2023-05-02T14:53:56;14.63;;;10.93;;
13641;SDS011;6894;52.196;9.904;2023-05-02T14:56:22;12.00;;;8.67;;
13641;SDS011;6894;52.196;9.904;2023-05-02T14:58:49;6.03;;;5.10;;
13641;SDS011;6894;52.196;9.904;2023-05-02T15:01:16;11.67;;;9.53;;
13641;SDS011;6894;52.196;9.904;2023-05-02T15:03:45;6.00;;;4.27;;
13641;SDS011;6894;52.196;9.904;2023-05-02T15:06:13;8.93;;;6.80;;
13641;SDS011;6894;52.196;9.904;2023-05-02T15:08:41;10.73;;;8.53;;
13641;SDS011;6894;52.196;9.904;2023-05-02T15:11:08;6.70;;;6.00;;
13641;SDS011;6894;52.196;9.904;2023-05-02T15:13:35;4.27;;;3.77;;
13641;SDS011;6894;52.196;9.904;2023-05-02T15:16:02;7.33;;;4.83;;